Time;durP1;ratioP1;P1;durP2;ratioP2;P2;SDS_P1;SDS_P2;PMS_P1;PMS_P2;Temp;Humidity;BMP_temperature;BMP_pressure;BME280_temperature;BME280_humidity;BME280_pressure;Samples;Min_cycle;Max_cycle;Signal;HPM_P1;HPM_P2
2021/12/13 00:01:55;;;;;;;;;52.00;40.75;;;;;13.49;47.34;99196.00;4834445;28;102729;-57
2021/12/13 00:04:33;;;;;;;;;50.00;39.25;;;;;13.49;47.17;99192.44;4851725;28;102657;-57
2021/12/13 00:07:04;;;;;;;;;53.50;40.50;;;;;13.47;47.79;99189.09;4833811;28;102665;-57
2021/12/13 00:09:33;;;;;;;;;53.25;40.25;;;;;13.46;47.79;99192.88;4837849;28;104602;-58
2021/12/13 00:12:02;;;;;;;;;54.25;39.75;;;;;13.44;47.83;99190.34;4828425;28;102607;-57
2021/12/13 00:14:45;;;;;;;;;47.75;37.00;;;;;13.43;47.08;99191.38;4841781;28;103410;-57
2021/12/13 00:17:20;;;;;;;;;52.00;39.00;;;;;13.42;47.58;99202.47;4828295;28;102660;-58
2021/12/13 00:19:55;;;;;;;;;60.50;44.00;;;;;13.43;47.25;99201.41;4827769;28;109050;-58
2021/12/13 00:22:24;;;;;;;;;50.00;37.25;;;;;13.39;47.68;99199.09;4815169;28;102822;-57
2021/12/13 00:24:52;;;;;;;;;53.00;40.00;;;;;13.39;47.36;99201.00;4828501;28;102298;-57
2021/12/13 00:27:27;;;;;;;;;53.50;41.25;;;;;13.36;47.30;99199.53;4842505;28;102512;-57
2021/12/13 00:30:06;;;;;;;;;49.00;39.75;;;;;13.34;47.24;99196.16;4826897;28;104609;-58
2021/12/13 00:32:51;;;;;;;;;54.00;41.75;;;;;13.31;47.10;99191.16;4839935;28;102926;-58
2021/12/13 00:35:28;;;;;;;;;36.25;34.00;;;;;13.30;47.29;99192.19;4836853;28;102613;-57
2021/12/13 00:37:58;;;;;;;;;54.25;40.25;;;;;13.29;46.80;99192.38;4838061;28;103148;-57
2021/12/13 00:40:30;;;;;;;;;50.75;39.00;;;;;13.29;47.33;99186.94;4833905;28;104144;-57
2021/12/13 00:43:06;;;;;;;;;50.75;39.75;;;;;13.28;47.23;99191.53;4829661;28;104291;-57
2021/12/13 00:45:36;;;;;;;;;53.50;42.50;;;;;13.28;47.17;99193.44;4833290;28;102712;-57
2021/12/13 00:48:04;;;;;;;;;39.75;29.25;;;;;13.28;47.35;99193.44;4815207;28;102742;-58
2021/12/13 00:50:41;;;;;;;;;41.25;35.25;;;;;13.27;47.18;99194.47;4825674;28;104417;-57
2021/12/13 00:53:08;;;;;;;;;55.50;39.00;;;;;13.26;46.99;99201.78;4834934;28;102596;-57
2021/12/13 00:55:35;;;;;;;;;54.00;37.50;;;;;13.25;47.43;99208.25;4802979;28;102518;-58
2021/12/13 00:58:22;;;;;;;;;47.50;37.00;;;;;13.25;47.56;99204.69;4814208;28;104315;-57
2021/12/13 01:01:00;;;;;;;;;52.25;40.00;;;;;13.25;47.04;99202.81;4822942;28;109063;-57
2021/12/13 01:03:36;;;;;;;;;50.00;38.25;;;;;13.23;46.94;99198.66;4822373;28;103150;-57
2021/12/13 01:06:48;;;;;;;;;38.00;32.75;;;;;13.21;46.72;99193.41;4822114;28;102565;-58
2021/12/13 01:09:52;;;;;;;;;53.50;38.50;;;;;13.20;46.86;99188.16;4815475;28;102458;-58
2021/12/13 01:12:21;;;;;;;;;49.25;39.25;;;;;13.16;46.85;99201.31;4842958;28;109878;-57
2021/12/13 01:14:58;;;;;;;;;56.00;41.50;;;;;13.16;47.63;99206.75;4830367;28;102970;-58
2021/12/13 01:17:51;;;;;;;;;51.00;40.00;;;;;13.15;47.24;99201.53;4825996;28;102583;-57
2021/12/13 01:20:57;;;;;;;;;52.75;41.00;;;;;13.14;47.33;99197.16;4837400;28;102955;-57
2021/12/13 01:23:41;;;;;;;;;49.00;37.75;;;;;13.13;47.23;99184.59;4810261;28;108864;-57
2021/12/13 01:26:28;;;;;;;;;42.75;33.50;;;;;13.12;47.79;99181.06;4836659;28;102708;-58
2021/12/13 01:28:59;;;;;;;;;49.75;40.00;;;;;13.10;47.77;99174.97;4833027;28;103374;-58
2021/12/13 01:31:35;;;;;;;;;52.25;39.25;;;;;13.07;47.18;99178.06;4822469;28;103032;-58
2021/12/13 01:34:03;;;;;;;;;50.75;40.00;;;;;13.06;47.79;99175.59;4828120;28;104238;-57
2021/12/13 01:37:16;;;;;;;;;53.25;38.75;;;;;13.03;47.35;99184.94;4829522;28;103275;-58
2021/12/13 01:39:51;;;;;;;;;50.50;39.75;;;;;13.05;47.74;99188.31;4794623;28;102519;-58
2021/12/13 01:42:21;;;;;;;;;49.00;37.00;;;;;13.05;46.80;99204.59;4827231;28;105036;-58
2021/12/13 01:44:51;;;;;;;;;50.75;39.00;;;;;13.04;46.94;99204.78;4827320;28;104056;-58
2021/12/13 01:47:24;;;;;;;;;45.75;38.00;;;;;13.02;46.85;99204.97;4836523;28;104733;-58
2021/12/13 01:49:54;;;;;;;;;50.00;39.25;;;;;13.03;47.61;99203.09;4839262;28;102563;-57
2021/12/13 01:52:28;;;;;;;;;55.25;41.25;;;;;13.02;47.57;99215.84;4831253;28;103100;-57
2021/12/13 01:55:01;;;;;;;;;52.00;42.25;;;;;13.00;46.61;99212.50;4824758;28;104115;-58
2021/12/13 01:57:40;;;;;;;;;52.50;37.25;;;;;13.01;47.63;99205.22;4834389;28;104092;-57
2021/12/13 02:00:17;;;;;;;;;56.75;41.50;;;;;13.00;47.45;99196.22;4825527;28;102593;-57
2021/12/13 02:02:47;;;;;;;;;39.75;36.00;;;;;12.98;47.38;99190.13;4812167;28;102197;-57
2021/12/13 02:05:31;;;;;;;;;47.25;39.75;;;;;12.96;47.69;99186.81;4825177;28;108310;-58
2021/12/13 02:08:08;;;;;;;;;47.00;38.75;;;;;12.96;47.19;99186.81;4821419;28;106528;-57
2021/12/13 02:10:43;;;;;;;;;50.25;39.25;;;;;12.95;46.77;99176.97;4753575;28;103807;-58
2021/12/13 02:13:16;;;;;;;;;53.75;40.75;;;;;12.93;46.83;99171.75;4818676;28;103111;-57
2021/12/13 02:18:35;;;;;;;;;46.75;37.25;;;;;12.91;47.07;99164.84;4824707;28;103103;-58
2021/12/13 02:21:18;;;;;;;;;52.75;40.75;;;;;12.90;46.59;99168.59;4830185;28;102578;-57
2021/12/13 02:23:48;;;;;;;;;46.50;36.25;;;;;12.89;47.60;99178.63;4835612;28;104264;-58
2021/12/13 02:26:15;;;;;;;;;57.50;40.00;;;;;12.85;47.31;99173.78;4831662;28;108990;-57
2021/12/13 02:28:48;;;;;;;;;53.50;42.75;;;;;12.86;47.35;99179.03;4814768;28;102681;-57
2021/12/13 02:31:25;;;;;;;;;52.75;41.00;;;;;12.85;46.53;99174.63;4847692;28;102398;-57
2021/12/13 02:33:58;;;;;;;;;47.75;37.25;;;;;12.83;47.66;99181.31;4836765;28;102588;-57
2021/12/13 02:36:27;;;;;;;;;52.25;42.25;;;;;12.82;47.38;99185.91;4833703;28;104087;-57
2021/12/13 02:38:56;;;;;;;;;46.50;37.75;;;;;12.82;47.65;99193.22;4817659;28;104137;-57
2021/12/13 02:41:26;;;;;;;;;47.00;38.50;;;;;12.81;46.75;99192.38;4810417;28;102641;-57
2021/12/13 02:44:16;;;;;;;;;51.25;42.50;;;;;12.80;47.41;99179.00;4821169;28;102546;-58
2021/12/13 02:46:45;;;;;;;;;44.50;38.25;;;;;12.82;47.02;99190.50;4823662;28;104168;-58
2021/12/13 02:49:16;;;;;;;;;43.25;35.25;;;;;12.80;47.20;99193.41;4829168;28;105009;-58
2021/12/13 02:51:52;;;;;;;;;48.50;39.75;;;;;12.81;47.06;99195.09;4838704;28;103880;-58
2021/12/13 02:54:40;;;;;;;;;48.25;38.00;;;;;12.79;46.76;99193.59;4831759;28;103570;-58
2021/12/13 02:57:11;;;;;;;;;47.50;39.25;;;;;12.79;47.28;99190.88;4826595;28;108867;-57
2021/12/13 02:59:41;;;;;;;;;52.75;39.25;;;;;12.77;47.47;99193.81;4840205;28;103571;-57
2021/12/13 03:02:31;;;;;;;;;51.00;38.75;;;;;12.77;47.48;99192.97;4832806;28;103932;-58
2021/12/13 03:04:59;;;;;;;;;53.50;41.50;;;;;12.73;46.98;99187.09;4843336;28;104321;-57
2021/12/13 03:07:31;;;;;;;;;54.50;41.50;;;;;12.75;47.42;99182.31;4838919;28;104281;-57
2021/12/13 03:09:59;;;;;;;;;50.75;39.00;;;;;12.76;46.37;99180.44;4843806;28;102607;-58
2021/12/13 03:12:28;;;;;;;;;50.25;40.00;;;;;12.81;46.33;99180.66;4826317;28;104183;-58
2021/12/13 03:14:59;;;;;;;;;51.50;40.25;;;;;12.85;45.98;99180.06;4856408;28;102236;-57
2021/12/13 03:17:36;;;;;;;;;50.00;36.50;;;;;12.90;46.50;99187.59;4835865;28;104071;-57
2021/12/13 03:20:25;;;;;;;;;50.50;38.00;;;;;12.95;46.11;99175.13;4831830;28;103463;-58
2021/12/13 03:23:03;;;;;;;;;49.50;38.75;;;;;13.00;46.28;99182.66;4837184;28;104599;-57
2021/12/13 03:25:59;;;;;;;;;52.75;41.00;;;;;13.05;46.40;99180.16;4835782;28;103670;-57
2021/12/13 03:28:50;;;;;;;;;46.75;37.25;;;;;13.09;46.03;99172.44;4842701;28;111668;-57
2021/12/13 03:31:27;;;;;;;;;43.00;36.25;;;;;13.12;46.17;99181.06;4839670;28;102528;-58
2021/12/13 03:33:58;;;;;;;;;49.00;37.25;;;;;13.12;45.15;99170.19;4833931;28;102670;-58
2021/12/13 03:36:55;;;;;;;;;54.00;40.75;;;;;13.13;45.99;99166.44;4841664;28;103132;-57
2021/12/13 03:39:29;;;;;;;;;40.50;35.00;;;;;13.12;45.61;99170.19;4809928;28;108700;-57
2021/12/13 03:41:57;;;;;;;;;49.25;36.00;;;;;13.13;45.97;99171.88;4825180;28;103833;-57
2021/12/13 03:44:34;;;;;;;;;45.75;38.25;;;;;13.12;45.64;99172.91;4840281;28;102541;-57
2021/12/13 03:47:11;;;;;;;;;48.25;38.75;;;;;13.13;46.20;99173.75;4839979;28;102513;-58
2021/12/13 03:49:58;;;;;;;;;51.25;40.50;;;;;13.11;46.18;99171.22;4828145;28;103841;-57
2021/12/13 03:52:29;;;;;;;;;47.00;38.75;;;;;13.11;45.87;99164.94;4839170;28;105859;-57
2021/12/13 03:54:57;;;;;;;;;43.75;37.00;;;;;13.10;45.11;99168.69;4840818;28;104085;-58
2021/12/13 03:57:25;;;;;;;;;50.25;35.75;;;;;13.10;46.03;99171.41;4836867;28;104431;-57
2021/12/13 03:59:52;;;;;;;;;50.50;38.25;;;;;13.09;45.32;99170.56;4848765;28;104152;-57
2021/12/13 04:02:25;;;;;;;;;49.75;38.25;;;;;13.11;45.58;99189.38;4835188;28;103331;-57
2021/12/13 04:04:58;;;;;;;;;49.25;36.25;;;;;13.09;46.06;99189.56;4823559;28;102799;-57
2021/12/13 04:07:35;;;;;;;;;40.50;35.50;;;;;13.10;46.18;99193.13;4826432;28;102855;-57
2021/12/13 04:10:08;;;;;;;;;49.00;37.25;;;;;13.06;45.96;99189.97;4830713;28;104077;-58
2021/12/13 04:12:45;;;;;;;;;46.25;36.00;;;;;13.05;46.10;99188.31;4835766;28;103330;-57
2021/12/13 04:15:19;;;;;;;;;45.50;37.25;;;;;13.06;46.17;99191.88;4834039;28;102540;-57
2021/12/13 04:20:30;;;;;;;;;35.75;34.00;;;;;13.03;46.43;99200.41;4840183;28;109005;-58
2021/12/13 04:23:03;;;;;;;;;45.75;36.50;;;;;13.00;45.84;99207.06;4824491;28;103005;-57
2021/12/13 04:25:33;;;;;;;;;45.50;38.00;;;;;12.99;45.25;99208.13;4829593;28;102665;-58
2021/12/13 04:28:11;;;;;;;;;46.00;37.25;;;;;12.98;45.69;99201.00;4831455;28;102675;-58
2021/12/13 04:30:53;;;;;;;;;43.50;34.50;;;;;12.97;46.25;99204.75;4837713;28;104517;-58
2021/12/13 04:33:43;;;;;;;;;40.50;35.25;;;;;12.95;45.72;99202.25;4834971;28;102521;-58
2021/12/13 04:36:28;;;;;;;;;50.50;36.00;;;;;12.94;45.68;99208.72;4834667;28;104308;-58
2021/12/13 04:38:58;;;;;;;;;47.25;36.00;;;;;12.92;45.88;99210.78;4831960;28;103231;-58
2021/12/13 04:41:40;;;;;;;;;44.50;36.25;;;;;12.93;46.62;99208.91;4833589;28;104174;-58
2021/12/13 04:44:29;;;;;;;;;49.50;38.00;;;;;12.90;45.23;99201.19;4825736;28;103820;-57
2021/12/13 04:46:56;;;;;;;;;41.00;32.50;;;;;12.89;45.93;99196.78;4834643;28;102472;-58
2021/12/13 04:49:25;;;;;;;;;40.75;34.75;;;;;12.88;45.58;99198.66;4837676;28;102828;-57
2021/12/13 04:52:00;;;;;;;;;51.00;40.00;;;;;12.89;46.29;99196.78;4836607;28;104262;-58
2021/12/13 04:54:29;;;;;;;;;42.50;36.00;;;;;12.85;45.54;99199.06;4818974;28;103880;-57
2021/12/13 04:56:57;;;;;;;;;51.25;37.00;;;;;12.85;46.53;99201.78;4834453;28;102523;-57
2021/12/13 04:59:25;;;;;;;;;45.50;38.00;;;;;12.82;45.65;99190.50;4838081;28;102636;-58
2021/12/13 05:01:54;;;;;;;;;50.25;38.25;;;;;12.82;45.97;99188.63;4832673;28;104102;-58
2021/12/13 05:04:23;;;;;;;;;37.50;34.00;;;;;12.81;45.54;99183.38;4835268;28;102741;-58
2021/12/13 05:06:50;;;;;;;;;41.25;34.25;;;;;12.79;45.43;99186.28;4837590;28;104074;-57
2021/12/13 05:09:18;;;;;;;;;43.25;39.00;;;;;12.80;45.52;99184.41;4829927;28;103029;-58
2021/12/13 05:11:56;;;;;;;;;49.50;38.75;;;;;12.78;45.40;99184.63;4833900;28;104126;-57
2021/12/13 05:14:37;;;;;;;;;47.25;36.75;;;;;12.76;45.85;99185.84;4834257;28;104251;-57
2021/12/13 05:17:11;;;;;;;;;47.00;36.50;;;;;12.72;46.09;99182.72;4822253;28;102600;-57
2021/12/13 05:19:45;;;;;;;;;46.50;38.00;;;;;12.72;46.82;99196.28;4849948;28;102672;-57
2021/12/13 05:22:13;;;;;;;;;51.00;38.00;;;;;12.70;46.01;99195.63;4844631;28;104241;-58
2021/12/13 05:24:48;;;;;;;;;51.00;37.00;;;;;12.70;46.29;99202.97;4823494;28;102640;-57
2021/12/13 05:27:26;;;;;;;;;44.75;37.00;;;;;12.69;45.77;99209.41;4832194;28;102378;-57
2021/12/13 05:29:53;;;;;;;;;48.75;38.00;;;;;12.66;46.53;99201.66;4834411;28;104689;-57
2021/12/13 05:32:31;;;;;;;;;45.00;36.75;;;;;12.67;45.88;99203.34;4829698;28;108737;-57
2021/12/13 05:35:06;;;;;;;;;44.00;37.00;;;;;12.66;45.83;99207.09;4830765;28;104415;-58
2021/12/13 05:37:41;;;;;;;;;40.50;35.00;;;;;12.64;46.67;99201.88;4835921;28;102760;-57
2021/12/13 05:40:11;;;;;;;;;39.00;33.25;;;;;12.61;46.39;99210.41;4828205;28;102545;-57
2021/12/13 05:42:51;;;;;;;;;48.00;36.75;;;;;12.60;46.59;99214.16;4843829;28;104250;-57
2021/12/13 05:45:52;;;;;;;;;40.50;34.50;;;;;12.60;45.73;99216.88;4837234;28;105974;-57
2021/12/13 05:48:47;;;;;;;;;46.75;36.25;;;;;12.53;46.01;99207.84;4828257;28;102569;-57
2021/12/13 05:51:32;;;;;;;;;41.00;33.00;;;;;12.57;46.50;99224.56;4840372;28;103435;-57
2021/12/13 05:54:09;;;;;;;;;36.25;33.25;;;;;12.56;45.82;99212.06;4845599;28;108367;-57
2021/12/13 05:56:50;;;;;;;;;50.00;38.75;;;;;12.53;46.37;99210.56;4839311;28;103953;-57
2021/12/13 05:59:43;;;;;;;;;43.00;32.75;;;;;12.53;45.75;99218.69;4833948;28;102429;-57
2021/12/13 06:02:13;;;;;;;;;44.50;36.50;;;;;12.51;46.24;99227.06;4846805;28;102372;-57
2021/12/13 06:05:00;;;;;;;;;46.50;39.50;;;;;12.50;46.65;99235.38;4841119;28;105176;-57
2021/12/13 06:07:29;;;;;;;;;38.50;32.00;;;;;12.51;46.37;99237.91;4825039;28;104656;-57
2021/12/13 06:10:05;;;;;;;;;48.75;38.00;;;;;12.46;45.85;99229.50;4850942;28;102534;-57
2021/12/13 06:12:37;;;;;;;;;43.75;36.75;;;;;12.47;46.07;99233.88;4832572;28;103542;-57
2021/12/13 06:15:15;;;;;;;;;47.25;36.75;;;;;12.43;45.77;99234.47;4842498;28;105498;-57
2021/12/13 06:18:04;;;;;;;;;43.25;36.50;;;;;12.42;46.83;99233.66;4835262;28;102504;-57
2021/12/13 06:20:42;;;;;;;;;48.00;37.00;;;;;12.41;45.80;99229.25;4821429;28;102522;-58
2021/12/13 06:23:25;;;;;;;;;44.75;37.25;;;;;12.42;45.80;99240.97;4841551;28;102554;-57
2021/12/13 06:26:07;;;;;;;;;46.00;37.00;;;;;12.42;46.06;99244.50;4843526;28;108917;-57
2021/12/13 06:28:39;;;;;;;;;44.75;35.75;;;;;12.41;45.70;99248.25;4844485;28;105366;-57
2021/12/13 06:31:12;;;;;;;;;39.25;32.75;;;;;12.41;45.87;99266.38;4839418;28;103229;-57
2021/12/13 06:33:49;;;;;;;;;39.75;34.00;;;;;12.38;46.60;99259.47;4853485;28;102874;-57
2021/12/13 06:36:36;;;;;;;;;42.75;35.75;;;;;12.40;46.76;99257.41;4836524;28;104039;-57
2021/12/13 06:39:14;;;;;;;;;48.50;36.50;;;;;12.38;46.53;99255.94;4831163;28;102400;-57
2021/12/13 06:41:58;;;;;;;;;40.50;37.00;;;;;12.38;45.85;99259.47;4849814;28;103754;-58
2021/12/13 06:44:30;;;;;;;;;50.75;38.00;;;;;12.38;46.49;99256.75;4850878;28;102465;-57
2021/12/13 06:47:06;;;;;;;;;43.50;34.25;;;;;12.38;46.25;99264.09;4851811;28;104077;-57
2021/12/13 06:49:39;;;;;;;;;52.75;36.25;;;;;12.36;46.09;99261.56;4844887;28;102567;-58
2021/12/13 06:52:10;;;;;;;;;53.25;38.50;;;;;12.35;45.91;99262.59;4815868;28;102680;-57
2021/12/13 06:55:01;;;;;;;;;42.00;37.00;;;;;12.34;45.71;99262.78;4822603;28;103436;-57
2021/12/13 06:57:31;;;;;;;;;42.00;37.25;;;;;12.33;45.92;99261.97;4845476;28;108801;-58
2021/12/13 07:00:01;;;;;;;;;50.50;38.00;;;;;12.32;46.85;99264.84;4842141;28;102644;-58
2021/12/13 07:02:41;;;;;;;;;42.75;37.50;;;;;12.32;46.10;99262.16;4836957;28;102512;-57
2021/12/13 07:05:24;;;;;;;;;43.25;36.25;;;;;12.32;46.57;99270.28;4832392;28;103417;-57
2021/12/13 07:07:55;;;;;;;;;45.50;36.00;;;;;12.32;46.13;99275.69;4840970;28;108895;-57
2021/12/13 07:10:25;;;;;;;;;43.00;36.50;;;;;12.31;45.82;99274.03;4841717;28;102491;-57
2021/12/13 07:13:00;;;;;;;;;46.50;36.75;;;;;12.29;46.14;99282.34;4835105;28;103660;-57
2021/12/13 07:15:41;;;;;;;;;43.25;35.75;;;;;12.27;46.47;99276.28;4841395;28;103647;-57
2021/12/13 07:18:12;;;;;;;;;42.75;36.25;;;;;12.28;46.03;99279.84;4848523;28;104224;-58
2021/12/13 07:20:44;;;;;;;;;45.25;34.00;;;;;12.28;46.80;99280.69;4855596;28;102622;-57
2021/12/13 07:23:11;;;;;;;;;42.50;35.50;;;;;12.28;46.41;99285.28;4856153;28;102500;-57
2021/12/13 07:25:39;;;;;;;;;42.25;34.50;;;;;12.29;46.64;99286.94;4838870;28;102323;-57
2021/12/13 07:28:06;;;;;;;;;39.25;35.25;;;;;12.28;46.08;99296.13;4837674;28;104049;-58
2021/12/13 07:30:36;;;;;;;;;43.00;36.00;;;;;12.28;46.60;99288.81;4840155;28;104310;-57
2021/12/13 07:33:06;;;;;;;;;44.50;35.50;;;;;12.28;46.63;99296.97;4838248;28;102905;-57
2021/12/13 07:35:41;;;;;;;;;51.50;36.75;;;;;12.28;46.33;99310.50;4835595;28;103048;-58
2021/12/13 07:38:18;;;;;;;;;47.25;38.75;;;;;12.28;46.58;99307.81;4831544;28;104048;-57
2021/12/13 07:40:55;;;;;;;;;50.25;38.00;;;;;12.28;46.03;99313.22;4849447;28;102262;-57
2021/12/13 07:43:23;;;;;;;;;44.25;36.50;;;;;12.27;46.16;99311.53;4837831;28;102582;-57
2021/12/13 07:45:50;;;;;;;;;44.50;37.00;;;;;12.27;46.14;99314.25;4844276;28;102724;-58
2021/12/13 07:48:19;;;;;;;;;52.25;38.00;;;;;12.27;46.52;99316.97;4848502;28;104172;-57
2021/12/13 07:51:12;;;;;;;;;43.25;36.25;;;;;12.27;46.60;99322.38;4848400;28;102263;-57
2021/12/13 07:53:56;;;;;;;;;48.00;36.50;;;;;12.28;46.54;99325.94;4839088;28;102218;-57
2021/12/13 07:56:27;;;;;;;;;51.75;39.50;;;;;12.25;46.32;99319.00;4842432;28;102492;-57
2021/12/13 07:59:16;;;;;;;;;42.50;35.00;;;;;12.26;45.88;99326.13;4839570;28;109055;-57
2021/12/13 08:01:49;;;;;;;;;51.25;37.50;;;;;12.23;46.45;99334.66;4850393;28;102631;-57
2021/12/13 08:04:22;;;;;;;;;48.00;33.25;;;;;12.24;45.94;99333.63;4848227;28;102452;-57
2021/12/13 08:07:09;;;;;;;;;47.50;37.75;;;;;12.23;45.75;99337.38;4837005;28;102278;-57
2021/12/13 08:09:57;;;;;;;;;40.50;36.00;;;;;12.24;46.38;99344.47;4852055;28;108883;-57
2021/12/13 08:12:42;;;;;;;;;47.50;36.75;;;;;12.24;45.80;99344.47;4850708;28;102666;-57
2021/12/13 08:15:17;;;;;;;;;49.50;39.00;;;;;12.23;46.36;99341.94;4830855;28;102250;-58
2021/12/13 08:18:11;;;;;;;;;52.75;38.50;;;;;12.20;45.83;99340.47;4847878;28;102707;-57
2021/12/13 08:20:49;;;;;;;;;50.00;39.25;;;;;12.19;45.88;99341.50;4835230;28;108995;-57
2021/12/13 08:23:44;;;;;;;;;44.75;37.00;;;;;12.20;45.81;99354.03;4845481;28;104410;-57
2021/12/13 08:26:13;;;;;;;;;51.75;38.25;;;;;12.21;46.34;99358.41;4835909;28;110651;-57
2021/12/13 08:28:45;;;;;;;;;51.00;38.00;;;;;12.21;46.52;99354.84;4838770;28;102205;-57
2021/12/13 08:31:30;;;;;;;;;45.50;36.75;;;;;12.21;46.27;99362.97;4846347;28;104046;-58
2021/12/13 08:34:02;;;;;;;;;52.75;37.25;;;;;12.21;46.27;99361.09;4824472;28;102626;-57
2021/12/13 08:36:41;;;;;;;;;49.75;37.75;;;;;12.21;46.52;99365.69;4822753;28;102512;-58
2021/12/13 08:39:12;;;;;;;;;47.00;37.00;;;;;12.20;45.92;99369.47;4832685;28;102681;-57
2021/12/13 08:41:46;;;;;;;;;42.25;34.50;;;;;12.21;45.84;99361.09;4845086;28;104076;-57
2021/12/13 08:44:40;;;;;;;;;39.50;34.50;;;;;12.20;46.74;99367.59;4851666;28;102635;-58
2021/12/13 08:47:19;;;;;;;;;49.00;39.50;;;;;12.20;45.93;99364.03;4840134;28;102063;-58
2021/12/13 08:49:53;;;;;;;;;40.00;37.00;;;;;12.20;46.05;99374.88;4843913;28;102655;-57
2021/12/13 08:52:31;;;;;;;;;43.75;34.25;;;;;12.21;45.50;99357.56;4836507;28;103685;-57
2021/12/13 08:55:10;;;;;;;;;42.75;37.25;;;;;12.21;45.91;99363.81;4830847;28;102513;-57
2021/12/13 08:57:51;;;;;;;;;45.75;37.25;;;;;12.21;45.70;99366.53;4845523;28;102368;-57
2021/12/13 09:00:36;;;;;;;;;45.50;37.00;;;;;12.22;46.41;99367.38;4847398;28;102879;-57
2021/12/13 09:03:10;;;;;;;;;51.25;38.50;;;;;12.21;46.00;99371.94;4832948;28;108797;-57
2021/12/13 09:06:01;;;;;;;;;57.00;36.75;;;;;12.21;45.62;99369.25;4842777;28;102705;-57
2021/12/13 09:08:44;;;;;;;;;44.75;35.25;;;;;12.23;46.43;99367.19;4850816;28;102352;-57
2021/12/13 09:11:32;;;;;;;;;51.25;40.25;;;;;12.24;45.58;99362.63;4860617;28;102431;-58
2021/12/13 09:14:10;;;;;;;;;49.75;39.50;;;;;12.24;46.04;99366.16;4839671;28;108726;-57
2021/12/13 09:16:54;;;;;;;;;48.50;37.00;;;;;12.23;46.00;99358.22;4849974;28;102747;-57
2021/12/13 09:19:23;;;;;;;;;50.25;38.50;;;;;12.23;46.35;99348.22;4838037;28;104009;-57
2021/12/13 09:22:02;;;;;;;;;50.50;40.00;;;;;12.23;46.02;99348.22;4843123;28;102547;-57
2021/12/13 09:24:56;;;;;;;;;51.50;40.75;;;;;12.22;45.58;99349.25;4845946;28;109148;-57
2021/12/13 09:27:34;;;;;;;;;45.50;37.75;;;;;12.22;45.60;99346.53;4819201;28;103270;-57
2021/12/13 09:30:14;;;;;;;;;49.75;39.75;;;;;12.25;45.31;99346.13;4844392;28;102523;-57
2021/12/13 09:32:56;;;;;;;;;47.25;37.50;;;;;12.28;45.68;99347.63;4849546;28;102688;-57
2021/12/13 09:35:31;;;;;;;;;45.50;38.00;;;;;12.28;45.47;99345.75;4843825;28;108964;-57
2021/12/13 09:38:02;;;;;;;;;47.75;38.00;;;;;12.29;45.50;99336.56;4848313;28;102615;-58
2021/12/13 09:40:40;;;;;;;;;51.75;40.00;;;;;12.30;45.94;99332.84;4851934;28;102506;-58
2021/12/13 09:43:07;;;;;;;;;50.50;40.25;;;;;12.30;45.15;99332.00;4837954;28;110720;-57
2021/12/13 09:45:43;;;;;;;;;45.25;37.25;;;;;12.30;46.06;99329.28;4853204;28;104788;-57
2021/12/13 09:48:22;;;;;;;;;47.50;37.75;;;;;12.30;45.34;99324.69;4839841;28;102454;-57
2021/12/13 09:50:51;;;;;;;;;53.50;39.50;;;;;12.31;45.92;99329.09;4836997;28;102458;-57
2021/12/13 09:53:25;;;;;;;;;53.25;40.50;;;;;12.30;45.51;99322.00;4828220;28;104446;-58
2021/12/13 09:55:52;;;;;;;;;50.25;39.75;;;;;12.31;46.06;99323.66;4842333;28;104080;-58
2021/12/13 09:58:22;;;;;;;;;46.75;39.25;;;;;12.32;46.22;99336.22;4839378;28;103295;-57
2021/12/13 10:01:04;;;;;;;;;50.50;39.50;;;;;12.31;45.88;99326.38;4842542;28;103075;-57
2021/12/13 10:03:42;;;;;;;;;51.75;38.00;;;;;12.31;45.40;99329.09;4844418;28;102728;-57
2021/12/13 10:06:09;;;;;;;;;51.00;41.00;;;;;12.33;46.22;99345.19;4833264;28;104050;-57
2021/12/13 10:08:58;;;;;;;;;47.75;38.00;;;;;12.31;45.61;99334.53;4834005;28;102581;-57
2021/12/13 10:11:36;;;;;;;;;23.00;18.50;;;;;12.33;45.12;99337.88;4835659;28;102966;-58
2021/12/13 10:14:03;;;;;;;;;50.00;40.00;;;;;12.31;46.11;99334.53;4836683;28;102562;-57
2021/12/13 10:16:37;;;;;;;;;31.75;27.00;;;;;12.32;45.75;99338.06;4849038;28;104049;-57
2021/12/13 10:19:06;;;;;;;;;56.50;39.75;;;;;12.32;45.12;99336.22;4820256;28;103565;-57
2021/12/13 10:21:36;;;;;;;;;45.75;38.00;;;;;12.33;45.42;99337.88;4806063;28;102415;-57
2021/12/13 10:24:09;;;;;;;;;48.50;39.75;;;;;12.35;45.48;99335.81;4817541;28;102496;-58
2021/12/13 10:26:39;;;;;;;;;46.75;38.00;;;;;12.35;45.93;99334.97;4819216;28;104094;-57
2021/12/13 10:29:07;;;;;;;;;51.25;39.00;;;;;12.36;45.83;99337.50;4814956;28;104013;-57
2021/12/13 10:31:39;;;;;;;;;40.00;33.25;;;;;12.37;45.88;99333.75;4832550;28;103536;-57
2021/12/13 10:34:10;;;;;;;;;53.25;41.75;;;;;12.37;45.19;99325.63;4830968;28;102661;-58
2021/12/13 10:36:39;;;;;;;;;45.50;38.00;;;;;12.38;45.07;99329.97;4827419;28;103406;-57
2021/12/13 10:39:28;;;;;;;;;43.50;35.50;;;;;12.37;45.65;99331.03;4830067;28;103693;-58
2021/12/13 10:42:06;;;;;;;;;47.75;37.25;;;;;12.37;46.00;99331.03;4821150;28;102519;-58
2021/12/13 10:44:33;;;;;;;;;42.75;33.75;;;;;12.38;44.99;99329.16;4829710;28;102617;-57
2021/12/13 10:47:06;;;;;;;;;49.25;39.50;;;;;12.39;45.46;99325.41;4828481;28;104070;-57
2021/12/13 10:49:36;;;;;;;;;46.50;37.25;;;;;12.38;45.80;99335.41;4816603;28;102499;-58
2021/12/13 10:52:08;;;;;;;;;51.50;38.25;;;;;12.38;45.64;99329.97;4826846;28;105464;-58
2021/12/13 10:54:38;;;;;;;;;40.00;32.50;;;;;12.39;45.25;99322.69;4823173;28;102692;-58
2021/12/13 10:57:10;;;;;;;;;44.25;36.50;;;;;12.39;45.94;99328.97;4823887;28;104020;-57
2021/12/13 10:59:41;;;;;;;;;49.50;37.25;;;;;12.40;45.57;99338.78;4819964;28;102510;-58
2021/12/13 11:02:17;;;;;;;;;25.25;19.25;;;;;12.40;45.36;99336.06;4813979;28;102412;-57
2021/12/13 11:04:48;;;;;;;;;47.00;37.25;;;;;12.40;45.49;99336.06;4824830;28;102376;-58
2021/12/13 11:07:15;;;;;;;;;46.75;38.00;;;;;12.41;45.63;99331.47;4826106;28;103873;-57
2021/12/13 11:09:43;;;;;;;;;45.00;37.25;;;;;12.41;45.72;99332.31;4821298;28;102438;-58
2021/12/13 11:12:27;;;;;;;;;39.50;34.25;;;;;12.40;45.69;99327.94;4819535;28;102268;-57
2021/12/13 11:15:01;;;;;;;;;42.50;34.00;;;;;12.42;45.87;99333.16;4809175;28;103541;-58
2021/12/13 11:17:29;;;;;;;;;38.00;33.25;;;;;12.41;44.69;99335.03;4791770;28;109787;-58
2021/12/13 11:19:58;;;;;;;;;45.25;37.25;;;;;12.42;45.69;99336.72;4844138;28;102516;-58
2021/12/13 11:22:28;;;;;;;;;47.75;36.75;;;;;12.44;45.63;99341.94;4830098;28;102514;-58
2021/12/13 11:24:58;;;;;;;;;43.00;37.00;;;;;12.44;45.67;99331.94;4831349;28;102137;-58
2021/12/13 11:27:31;;;;;;;;;35.75;32.75;;;;;12.44;45.63;99331.94;4825443;28;109543;-58
2021/12/13 11:29:59;;;;;;;;;48.25;35.75;;;;;12.45;44.89;99333.63;4839818;28;102307;-57
2021/12/13 11:32:35;;;;;;;;;43.00;37.00;;;;;12.45;45.73;99341.75;4834266;28;102348;-57
2021/12/13 11:35:08;;;;;;;;;44.00;35.00;;;;;12.45;45.07;99330.91;4850527;28;102649;-58
2021/12/13 11:38:04;;;;;;;;;44.25;37.00;;;;;12.44;45.90;99321.06;4836677;28;104055;-58
2021/12/13 11:40:40;;;;;;;;;37.25;32.75;;;;;12.45;45.55;99324.63;4850562;28;104808;-57
2021/12/13 11:43:44;;;;;;;;;42.00;36.00;;;;;12.45;45.56;99328.19;4843165;28;102751;-58
2021/12/13 11:46:28;;;;;;;;;46.50;37.50;;;;;12.44;45.85;99322.94;4836962;28;103470;-57
2021/12/13 11:49:22;;;;;;;;;44.50;36.25;;;;;12.43;45.33;99324.81;4830782;28;108883;-57
2021/12/13 11:52:25;;;;;;;;;46.50;34.00;;;;;12.43;45.00;99322.09;4836658;28;102475;-58
2021/12/13 11:55:11;;;;;;;;;44.00;34.75;;;;;12.43;45.24;99319.38;4836407;28;102493;-58
2021/12/13 11:58:13;;;;;;;;;46.25;36.00;;;;;12.40;45.83;99314.38;4848453;28;102655;-57